sensor_id;sensor_type;location;lat;lon;timestamp;pressure;altitude;pressure_sealevel;temperature;humidity
49709;BME280;35601;55.902;13.606;2023-02-16T00:02:07;101253.34;;;-1.15;95.39
49709;BME280;35601;55.902;13.606;2023-02-16T00:04:30;101250.22;;;-1.01;95.15
49709;BME280;35601;55.902;13.606;2023-02-16T00:06:56;101255.87;;;-0.92;94.83
49709;BME280;35601;55.902;13.606;2023-02-16T00:09:23;101255.63;;;-1.00;94.96
49709;BME280;35601;55.902;13.606;2023-02-16T00:11:48;101251.99;;;-1.13;94.91
49709;BME280;35601;55.902;13.606;2023-02-16T00:14:14;101243.05;;;-0.99;94.62
49709;BME280;35601;55.902;13.606;2023-02-16T00:16:39;101245.26;;;-1.23;96.80
49709;BME280;35601;55.902;13.606;2023-02-16T00:19:18;101245.87;;;-1.23;96.25
49709;BME280;35601;55.902;13.606;2023-02-16T00:21:30;101241.04;;;-1.28;96.11
49709;BME280;35601;55.902;13.606;2023-02-16T00:23:55;101245.08;;;-1.43;96.29
49709;BME280;35601;55.902;13.606;2023-02-16T00:26:23;101239.65;;;-1.30;95.56
49709;BME280;35601;55.902;13.606;2023-02-16T00:28:49;101239.04;;;-1.03;95.42
49709;BME280;35601;55.902;13.606;2023-02-16T00:31:16;101246.22;;;-1.15;95.24
49709;BME280;35601;55.902;13.606;2023-02-16T00:33:38;101240.77;;;-1.02;94.62
49709;BME280;35601;55.902;13.606;2023-02-16T00:36:04;101236.22;;;-0.96;94.38
49709;BME280;35601;55.902;13.606;2023-02-16T00:38:28;101235.42;;;-0.77;94.43
49709;BME280;35601;55.902;13.606;2023-02-16T00:40:53;101228.30;;;-1.18;95.33
49709;BME280;35601;55.902;13.606;2023-02-16T00:43:25;101225.16;;;-1.15;95.40
49709;BME280;35601;55.902;13.606;2023-02-16T00:45:44;101222.52;;;-1.47;95.58
49709;BME280;35601;55.902;13.606;2023-02-16T00:48:10;101217.25;;;-1.33;97.11
49709;BME280;35601;55.902;13.606;2023-02-16T00:50:35;101216.35;;;-1.38;97.69
49709;BME280;35601;55.902;13.606;2023-02-16T00:53:01;101216.11;;;-1.56;98.01
49709;BME280;35601;55.902;13.606;2023-02-16T00:55:29;101201.22;;;-1.67;98.78
49709;BME280;35601;55.902;13.606;2023-02-16T00:57:54;101194.28;;;-1.69;98.87
49709;BME280;35601;55.902;13.606;2023-02-16T01:00:22;101189.86;;;-1.62;98.88
49709;BME280;35601;55.902;13.606;2023-02-16T01:02:43;101186.19;;;-1.75;98.71
49709;BME280;35601;55.902;13.606;2023-02-16T01:05:07;101193.83;;;-1.27;98.00
49709;BME280;35601;55.902;13.606;2023-02-16T01:07:33;101190.45;;;-1.36;97.33
49709;BME280;35601;55.902;13.606;2023-02-16T01:09:59;101190.16;;;-1.03;97.06
49709;BME280;35601;55.902;13.606;2023-02-16T01:12:24;101195.02;;;-1.60;98.89
49709;BME280;35601;55.902;13.606;2023-02-16T01:14:51;101198.57;;;-1.33;97.58
49709;BME280;35601;55.902;13.606;2023-02-16T01:17:14;101200.90;;;-1.13;97.04
49709;BME280;35601;55.902;13.606;2023-02-16T01:19:39;101194.70;;;-1.30;96.60
49709;BME280;35601;55.902;13.606;2023-02-16T01:22:05;101191.93;;;-1.38;97.57
49709;BME280;35601;55.902;13.606;2023-02-16T01:24:30;101185.51;;;-1.26;97.53
49709;BME280;35601;55.902;13.606;2023-02-16T01:26:56;101185.77;;;-1.22;97.72
49709;BME280;35601;55.902;13.606;2023-02-16T01:29:22;101183.19;;;-1.28;98.19
49709;BME280;35601;55.902;13.606;2023-02-16T01:31:47;101186.06;;;-1.08;97.29
49709;BME280;35601;55.902;13.606;2023-02-16T01:34:13;101186.21;;;-1.21;97.03
49709;BME280;35601;55.902;13.606;2023-02-16T01:36:39;101182.70;;;-1.12;96.97
49709;BME280;35601;55.902;13.606;2023-02-16T01:39:03;101180.46;;;-1.17;96.89
49709;BME280;35601;55.902;13.606;2023-02-16T01:43:57;101183.19;;;-1.00;96.13
49709;BME280;35601;55.902;13.606;2023-02-16T01:46:22;101183.98;;;-1.06;95.26
49709;BME280;35601;55.902;13.606;2023-02-16T01:48:44;101185.66;;;-0.91;94.36
49709;BME280;35601;55.902;13.606;2023-02-16T01:51:15;101191.61;;;-0.84;94.22
49709;BME280;35601;55.902;13.606;2023-02-16T01:53:39;101195.44;;;-0.67;93.41
49709;BME280;35601;55.902;13.606;2023-02-16T01:56:03;101190.80;;;-0.26;92.54
49709;BME280;35601;55.902;13.606;2023-02-16T01:58:33;101186.32;;;-0.78;92.93
49709;BME280;35601;55.902;13.606;2023-02-16T02:03:19;101178.68;;;-0.66;91.78
49709;BME280;35601;55.902;13.606;2023-02-16T02:05:42;101175.87;;;-0.62;91.82
49709;BME280;35601;55.902;13.606;2023-02-16T02:08:16;101161.06;;;-0.85;92.48
49709;BME280;35601;55.902;13.606;2023-02-16T02:10:40;101160.55;;;-0.89;92.71
49709;BME280;35601;55.902;13.606;2023-02-16T02:13:03;101166.12;;;-0.83;92.61
49709;BME280;35601;55.902;13.606;2023-02-16T02:15:27;101166.87;;;-0.66;92.75
49709;BME280;35601;55.902;13.606;2023-02-16T02:17:49;101162.94;;;-0.61;92.61
49709;BME280;35601;55.902;13.606;2023-02-16T02:20:19;101160.25;;;-0.78;92.16
49709;BME280;35601;55.902;13.606;2023-02-16T02:22:55;101154.81;;;-0.89;92.73
49709;BME280;35601;55.902;13.606;2023-02-16T02:25:18;101152.17;;;-0.76;92.01
49709;BME280;35601;55.902;13.606;2023-02-16T02:27:33;101150.18;;;-0.68;92.28
49709;BME280;35601;55.902;13.606;2023-02-16T02:30:09;101145.81;;;-1.04;92.61
49709;BME280;35601;55.902;13.606;2023-02-16T02:32:31;101136.82;;;-0.70;92.32
49709;BME280;35601;55.902;13.606;2023-02-16T02:34:59;101138.12;;;-0.60;91.88
49709;BME280;35601;55.902;13.606;2023-02-16T02:37:18;101129.35;;;-0.48;92.24
49709;BME280;35601;55.902;13.606;2023-02-16T02:39:46;101130.87;;;-1.15;93.00
49709;BME280;35601;55.902;13.606;2023-02-16T02:42:12;101128.64;;;-0.65;93.12
49709;BME280;35601;55.902;13.606;2023-02-16T02:44:34;101122.37;;;-0.81;92.71
49709;BME280;35601;55.902;13.606;2023-02-16T02:46:56;101117.04;;;-1.20;93.99
49709;BME280;35601;55.902;13.606;2023-02-16T02:49:22;101116.96;;;-0.93;93.99
49709;BME280;35601;55.902;13.606;2023-02-16T02:51:48;101115.28;;;-1.09;94.96
49709;BME280;35601;55.902;13.606;2023-02-16T02:54:15;101116.75;;;-0.91;94.37
49709;BME280;35601;55.902;13.606;2023-02-16T02:56:39;101119.50;;;-0.72;94.74
49709;BME280;35601;55.902;13.606;2023-02-16T02:59:07;101115.85;;;-1.14;94.38
49709;BME280;35601;55.902;13.606;2023-02-16T03:01:31;101118.25;;;-0.95;93.67
49709;BME280;35601;55.902;13.606;2023-02-16T03:03:56;101113.23;;;-0.75;93.95
49709;BME280;35601;55.902;13.606;2023-02-16T03:06:22;101114.47;;;-0.60;93.33
49709;BME280;35601;55.902;13.606;2023-02-16T03:08:49;101113.00;;;-1.11;93.32
49709;BME280;35601;55.902;13.606;2023-02-16T03:11:14;101105.62;;;-0.84;92.88
49709;BME280;35601;55.902;13.606;2023-02-16T03:13:38;101106.45;;;-1.16;94.06
49709;BME280;35601;55.902;13.606;2023-02-16T03:16:05;101114.25;;;-0.75;93.73
49709;BME280;35601;55.902;13.606;2023-02-16T03:18:28;101110.59;;;-0.78;92.66
49709;BME280;35601;55.902;13.606;2023-02-16T03:20:54;101113.66;;;-0.70;92.14
49709;BME280;35601;55.902;13.606;2023-02-16T03:23:18;101107.01;;;-0.76;91.45
49709;BME280;35601;55.902;13.606;2023-02-16T03:25:44;101102.68;;;-0.66;91.05
49709;BME280;35601;55.902;13.606;2023-02-16T03:28:09;101106.82;;;-0.64;90.62
49709;BME280;35601;55.902;13.606;2023-02-16T03:30:35;101105.13;;;-0.52;90.49
49709;BME280;35601;55.902;13.606;2023-02-16T03:33:00;101104.22;;;-0.43;89.87
49709;BME280;35601;55.902;13.606;2023-02-16T03:35:27;101100.64;;;-0.40;89.78
49709;BME280;35601;55.902;13.606;2023-02-16T03:37:52;101098.20;;;-0.80;91.80
49709;BME280;35601;55.902;13.606;2023-02-16T03:40:17;101102.08;;;-0.69;92.38
49709;BME280;35601;55.902;13.606;2023-02-16T03:42:48;101106.88;;;-0.81;91.97
49709;BME280;35601;55.902;13.606;2023-02-16T03:45:08;101104.38;;;-0.77;91.46
49709;BME280;35601;55.902;13.606;2023-02-16T03:47:34;101098.05;;;-0.77;91.68
49709;BME280;35601;55.902;13.606;2023-02-16T03:49:59;101088.77;;;-0.46;91.65
49709;BME280;35601;55.902;13.606;2023-02-16T03:52:25;101094.43;;;-0.26;91.59
49709;BME280;35601;55.902;13.606;2023-02-16T03:54:50;101090.99;;;-0.74;91.84
49709;BME280;35601;55.902;13.606;2023-02-16T03:57:15;101092.59;;;-0.67;91.35
49709;BME280;35601;55.902;13.606;2023-02-16T03:59:41;101090.68;;;-0.40;91.45
49709;BME280;35601;55.902;13.606;2023-02-16T04:02:06;101093.13;;;-0.58;90.66
49709;BME280;35601;55.902;13.606;2023-02-16T04:04:31;101092.51;;;-0.72;91.58
49709;BME280;35601;55.902;13.606;2023-02-16T04:06:56;101087.31;;;-0.72;91.82
49709;BME280;35601;55.902;13.606;2023-02-16T04:09:22;101097.47;;;-0.67;91.11
49709;BME280;35601;55.902;13.606;2023-02-16T04:11:47;101098.19;;;-0.55;91.13
49709;BME280;35601;55.902;13.606;2023-02-16T04:14:13;101100.62;;;-0.53;90.95
49709;BME280;35601;55.902;13.606;2023-02-16T04:16:39;101085.74;;;-0.46;90.78
49709;BME280;35601;55.902;13.606;2023-02-16T04:19:04;101077.03;;;-0.26;91.02
49709;BME280;35601;55.902;13.606;2023-02-16T04:21:29;101085.82;;;-0.51;90.74
49709;BME280;35601;55.902;13.606;2023-02-16T04:23:55;101080.08;;;-0.51;90.93
49709;BME280;35601;55.902;13.606;2023-02-16T04:26:21;101081.77;;;-0.47;91.28
49709;BME280;35601;55.902;13.606;2023-02-16T04:28:46;101078.13;;;-0.45;90.89
49709;BME280;35601;55.902;13.606;2023-02-16T04:31:11;101072.02;;;-0.45;91.00
49709;BME280;35601;55.902;13.606;2023-02-16T04:33:37;101069.57;;;-0.50;91.30
49709;BME280;35601;55.902;13.606;2023-02-16T04:36:03;101065.38;;;-0.42;90.96
49709;BME280;35601;55.902;13.606;2023-02-16T04:38:28;101065.44;;;-0.40;91.28
49709;BME280;35601;55.902;13.606;2023-02-16T04:40:53;101058.79;;;-0.40;91.21
49709;BME280;35601;55.902;13.606;2023-02-16T04:43:19;101060.59;;;-0.34;90.89
49709;BME280;35601;55.902;13.606;2023-02-16T04:45:44;101055.44;;;-0.24;90.34
49709;BME280;35601;55.902;13.606;2023-02-16T04:48:10;101046.54;;;-0.33;90.66
49709;BME280;35601;55.902;13.606;2023-02-16T04:50:35;101041.54;;;-0.46;91.60
49709;BME280;35601;55.902;13.606;2023-02-16T04:53:01;101037.24;;;-0.47;91.34
49709;BME280;35601;55.902;13.606;2023-02-16T04:55:26;101040.49;;;-0.03;91.66
49709;BME280;35601;55.902;13.606;2023-02-16T04:57:52;101045.01;;;-0.50;91.44
49709;BME280;35601;55.902;13.606;2023-02-16T05:00:18;101044.48;;;-0.23;91.52
49709;BME280;35601;55.902;13.606;2023-02-16T05:02:43;101047.63;;;-0.51;91.42
49709;BME280;35601;55.902;13.606;2023-02-16T05:05:08;101041.82;;;-0.53;91.62
49709;BME280;35601;55.902;13.606;2023-02-16T05:07:34;101039.35;;;-0.44;90.74
49709;BME280;35601;55.902;13.606;2023-02-16T05:09:59;101040.99;;;-0.38;90.77
49709;BME280;35601;55.902;13.606;2023-02-16T05:12:25;101036.04;;;-1.60;90.92
49709;BME280;35601;55.902;13.606;2023-02-16T05:14:50;101036.56;;;-0.23;90.25
49709;BME280;35601;55.902;13.606;2023-02-16T05:17:16;101029.65;;;-0.30;90.38
49709;BME280;35601;55.902;13.606;2023-02-16T05:19:42;101018.49;;;-0.30;90.26
49709;BME280;35601;55.902;13.606;2023-02-16T05:22:07;101010.76;;;-0.43;91.00
49709;BME280;35601;55.902;13.606;2023-02-16T05:24:32;101012.01;;;-0.28;91.55
49709;BME280;35601;55.902;13.606;2023-02-16T05:26:57;101011.88;;;-0.55;91.81
49709;BME280;35601;55.902;13.606;2023-02-16T05:29:23;101008.55;;;-0.56;91.64
49709;BME280;35601;55.902;13.606;2023-02-16T05:31:48;101013.80;;;-0.23;91.52
49709;BME280;35601;55.902;13.606;2023-02-16T05:34:13;101013.24;;;-0.41;90.97
49709;BME280;35601;55.902;13.606;2023-02-16T05:36:39;101015.15;;;-0.33;90.75
49709;BME280;35601;55.902;13.606;2023-02-16T05:39:04;101014.61;;;-0.22;90.61
49709;BME280;35601;55.902;13.606;2023-02-16T05:41:29;101015.29;;;-0.26;90.71
49709;BME280;35601;55.902;13.606;2023-02-16T05:43:57;101005.38;;;-0.23;90.80
49709;BME280;35601;55.902;13.606;2023-02-16T05:46:21;101008.79;;;-0.40;91.41
49709;BME280;35601;55.902;13.606;2023-02-16T05:48:46;101000.45;;;-0.78;92.76
49709;BME280;35601;55.902;13.606;2023-02-16T05:51:11;101000.60;;;-0.50;93.36
49709;BME280;35601;55.902;13.606;2023-02-16T05:53:36;101004.52;;;-0.89;93.18
49709;BME280;35601;55.902;13.606;2023-02-16T05:56:02;101003.76;;;-0.47;92.48
49709;BME280;35601;55.902;13.606;2023-02-16T05:58:27;100993.35;;;-0.33;92.94
49709;BME280;35601;55.902;13.606;2023-02-16T06:00:52;100991.01;;;-0.98;93.84
49709;BME280;35601;55.902;13.606;2023-02-16T06:03:18;100983.89;;;-0.77;94.80
49709;BME280;35601;55.902;13.606;2023-02-16T06:05:43;100983.04;;;-0.65;94.57
49709;BME280;35601;55.902;13.606;2023-02-16T06:08:08;100987.41;;;-0.71;94.63
49709;BME280;35601;55.902;13.606;2023-02-16T06:10:34;100979.61;;;-0.74;94.82
49709;BME280;35601;55.902;13.606;2023-02-16T06:12:59;100981.54;;;-0.66;94.28
49709;BME280;35601;55.902;13.606;2023-02-16T06:15:24;100985.16;;;-0.61;94.34
49709;BME280;35601;55.902;13.606;2023-02-16T06:17:50;100991.91;;;-0.51;94.32
49709;BME280;35601;55.902;13.606;2023-02-16T06:20:15;100993.21;;;-0.59;94.31
49709;BME280;35601;55.902;13.606;2023-02-16T06:22:41;100992.57;;;-0.58;94.33
49709;BME280;35601;55.902;13.606;2023-02-16T06:25:06;100985.39;;;-0.67;94.42
49709;BME280;35601;55.902;13.606;2023-02-16T06:27:31;100984.24;;;-0.98;96.35
49709;BME280;35601;55.902;13.606;2023-02-16T06:29:57;100982.28;;;-1.09;97.15
49709;BME280;35601;55.902;13.606;2023-02-16T06:32:22;100981.39;;;-1.15;97.96
49709;BME280;35601;55.902;13.606;2023-02-16T06:34:48;100980.00;;;-0.98;97.60
49709;BME280;35601;55.902;13.606;2023-02-16T06:37:13;100981.58;;;-0.79;96.87
49709;BME280;35601;55.902;13.606;2023-02-16T06:39:39;100977.23;;;-1.04;96.93
49709;BME280;35601;55.902;13.606;2023-02-16T06:42:04;100975.20;;;-0.95;97.06
49709;BME280;35601;55.902;13.606;2023-02-16T06:44:30;100968.73;;;-1.18;97.13
49709;BME280;35601;55.902;13.606;2023-02-16T06:46:55;100966.23;;;-1.31;97.78
49709;BME280;35601;55.902;13.606;2023-02-16T06:49:21;100965.71;;;-1.58;99.14
49709;BME280;35601;55.902;13.606;2023-02-16T06:51:47;100959.75;;;-1.06;99.33
49709;BME280;35601;55.902;13.606;2023-02-16T06:54:12;100961.43;;;-1.34;99.74
49709;BME280;35601;55.902;13.606;2023-02-16T06:56:37;100959.72;;;-1.35;98.66
49709;BME280;35601;55.902;13.606;2023-02-16T06:59:03;100955.62;;;-1.39;99.08
49709;BME280;35601;55.902;13.606;2023-02-16T07:01:28;100959.99;;;-1.19;98.42
49709;BME280;35601;55.902;13.606;2023-02-16T07:03:54;100963.70;;;-0.93;98.10
49709;BME280;35601;55.902;13.606;2023-02-16T07:06:19;100951.52;;;-1.03;98.65
49709;BME280;35601;55.902;13.606;2023-02-16T07:08:44;100949.86;;;-1.04;99.07
49709;BME280;35601;55.902;13.606;2023-02-16T07:11:10;100955.01;;;-0.71;98.53
49709;BME280;35601;55.902;13.606;2023-02-16T07:13:35;100962.12;;;-0.88;98.13
49709;BME280;35601;55.902;13.606;2023-02-16T07:16:00;100975.67;;;-0.97;97.64
49709;BME280;35601;55.902;13.606;2023-02-16T07:18:26;100978.83;;;-0.71;96.53
49709;BME280;35601;55.902;13.606;2023-02-16T07:20:52;100980.40;;;-0.49;95.70
49709;BME280;35601;55.902;13.606;2023-02-16T07:23:17;100978.52;;;-0.40;95.21
49709;BME280;35601;55.902;13.606;2023-02-16T07:25:43;100978.38;;;-0.59;95.02
49709;BME280;35601;55.902;13.606;2023-02-16T07:28:08;100987.96;;;-0.64;95.09
49709;BME280;35601;55.902;13.606;2023-02-16T07:30:34;100988.14;;;-0.72;94.63
49709;BME280;35601;55.902;13.606;2023-02-16T07:32:58;101003.53;;;-0.16;93.45
49709;BME280;35601;55.902;13.606;2023-02-16T07:35:24;100999.98;;;-0.31;93.57
49709;BME280;35601;55.902;13.606;2023-02-16T07:37:49;100997.90;;;-0.16;92.90
49709;BME280;35601;55.902;13.606;2023-02-16T07:40:15;101010.36;;;-0.12;92.39
49709;BME280;35601;55.902;13.606;2023-02-16T07:42:40;101012.07;;;-0.26;92.27
49709;BME280;35601;55.902;13.606;2023-02-16T07:45:06;101020.04;;;-0.21;92.24
49709;BME280;35601;55.902;13.606;2023-02-16T07:47:31;101009.99;;;-0.23;92.21
49709;BME280;35601;55.902;13.606;2023-02-16T07:49:57;101010.43;;;-0.33;92.57
49709;BME280;35601;55.902;13.606;2023-02-16T07:52:22;101001.56;;;-0.25;92.45
49709;BME280;35601;55.902;13.606;2023-02-16T07:54:47;101000.04;;;-0.18;92.35
49709;BME280;35601;55.902;13.606;2023-02-16T07:57:13;101009.98;;;-0.14;92.32
49709;BME280;35601;55.902;13.606;2023-02-16T07:59:39;101003.82;;;-0.11;92.17
49709;BME280;35601;55.902;13.606;2023-02-16T08:02:04;101007.67;;;0.00;91.73
49709;BME280;35601;55.902;13.606;2023-02-16T08:04:30;101001.76;;;-0.02;92.08
49709;BME280;35601;55.902;13.606;2023-02-16T08:06:55;100994.77;;;-0.05;92.46
49709;BME280;35601;55.902;13.606;2023-02-16T08:09:21;100991.75;;;-0.10;93.05
49709;BME280;35601;55.902;13.606;2023-02-16T08:11:46;100997.35;;;-0.15;92.48
49709;BME280;35601;55.902;13.606;2023-02-16T08:14:13;101000.18;;;0.19;91.67
49709;BME280;35601;55.902;13.606;2023-02-16T08:16:37;101001.38;;;0.26;90.88
49709;BME280;35601;55.902;13.606;2023-02-16T08:19:02;100986.46;;;0.03;91.24
49709;BME280;35601;55.902;13.606;2023-02-16T08:21:29;100993.01;;;0.04;91.28
49709;BME280;35601;55.902;13.606;2023-02-16T08:23:55;100993.76;;;0.03;91.47
49709;BME280;35601;55.902;13.606;2023-02-16T08:26:20;100995.37;;;0.29;91.08
49709;BME280;35601;55.902;13.606;2023-02-16T08:28:46;101003.19;;;0.23;91.20
49709;BME280;35601;55.902;13.606;2023-02-16T08:31:11;101001.17;;;0.28;91.18
49709;BME280;35601;55.902;13.606;2023-02-16T08:33:36;100999.45;;;0.26;91.32
49709;BME280;35601;55.902;13.606;2023-02-16T08:36:01;101000.51;;;0.40;90.92
49709;BME280;35601;55.902;13.606;2023-02-16T08:38:26;100996.60;;;0.44;90.88
49709;BME280;35601;55.902;13.606;2023-02-16T08:40:52;100994.67;;;0.43;90.26
49709;BME280;35601;55.902;13.606;2023-02-16T08:43:18;100990.90;;;-0.01;91.25
49709;BME280;35601;55.902;13.606;2023-02-16T08:45:43;100987.39;;;0.09;91.51
49709;BME280;35601;55.902;13.606;2023-02-16T08:48:08;100989.67;;;0.25;92.15
49709;BME280;35601;55.902;13.606;2023-02-16T08:50:34;100988.87;;;0.43;91.94
49709;BME280;35601;55.902;13.606;2023-02-16T08:52:59;100991.66;;;0.62;91.80
49709;BME280;35601;55.902;13.606;2023-02-16T08:55:25;100990.28;;;0.46;91.93
49709;BME280;35601;55.902;13.606;2023-02-16T08:57:50;100988.15;;;0.79;92.71
49709;BME280;35601;55.902;13.606;2023-02-16T09:00:16;100982.43;;;0.93;92.48
49709;BME280;35601;55.902;13.606;2023-02-16T09:02:41;100973.20;;;0.55;92.00
49709;BME280;35601;55.902;13.606;2023-02-16T09:05:07;100974.81;;;0.76;91.77
49709;BME280;35601;55.902;13.606;2023-02-16T09:07:32;100973.79;;;0.52;91.45
49709;BME280;35601;55.902;13.606;2023-02-16T09:09:58;100980.33;;;0.69;91.46
49709;BME280;35601;55.902;13.606;2023-02-16T09:12:23;100983.18;;;0.90;91.66
49709;BME280;35601;55.902;13.606;2023-02-16T09:14:49;100984.47;;;0.68;91.64
49709;BME280;35601;55.902;13.606;2023-02-16T09:17:14;100986.47;;;0.77;91.63
49709;BME280;35601;55.902;13.606;2023-02-16T09:19:40;100988.16;;;0.63;91.36
49709;BME280;35601;55.902;13.606;2023-02-16T09:22:05;100981.00;;;0.61;91.37
49709;BME280;35601;55.902;13.606;2023-02-16T09:24:31;100979.65;;;0.79;91.41
49709;BME280;35601;55.902;13.606;2023-02-16T09:26:56;100978.47;;;0.81;91.51
49709;BME280;35601;55.902;13.606;2023-02-16T09:29:21;100983.62;;;0.75;91.69
49709;BME280;35601;55.902;13.606;2023-02-16T09:31:46;100983.52;;;1.00;91.72
49709;BME280;35601;55.902;13.606;2023-02-16T09:34:16;100987.11;;;0.50;91.86
49709;BME280;35601;55.902;13.606;2023-02-16T09:36:37;100986.10;;;0.53;92.11
49709;BME280;35601;55.902;13.606;2023-02-16T09:39:02;100983.68;;;0.54;92.01
49709;BME280;35601;55.902;13.606;2023-02-16T09:41:35;100991.11;;;0.62;91.67
49709;BME280;35601;55.902;13.606;2023-02-16T09:43:56;100990.00;;;0.73;91.01
49709;BME280;35601;55.902;13.606;2023-02-16T09:46:20;100988.78;;;0.87;90.98
49709;BME280;35601;55.902;13.606;2023-02-16T09:48:45;100986.79;;;0.89;91.05
49709;BME280;35601;55.902;13.606;2023-02-16T09:51:10;100980.13;;;0.92;91.43
49709;BME280;35601;55.902;13.606;2023-02-16T09:53:36;100978.04;;;1.04;91.03
49709;BME280;35601;55.902;13.606;2023-02-16T09:56:11;100978.53;;;1.21;90.42
49709;BME280;35601;55.902;13.606;2023-02-16T09:58:28;100974.88;;;1.30;90.18
49709;BME280;35601;55.902;13.606;2023-02-16T10:00:54;100979.02;;;0.78;90.51
49709;BME280;35601;55.902;13.606;2023-02-16T10:03:33;100985.47;;;1.32;89.49
49709;BME280;35601;55.902;13.606;2023-02-16T10:05:46;100982.62;;;1.38;89.55
49709;BME280;35601;55.902;13.606;2023-02-16T10:08:11;100985.63;;;0.97;89.23
49709;BME280;35601;55.902;13.606;2023-02-16T10:10:39;100985.74;;;1.00;88.84
49709;BME280;35601;55.902;13.606;2023-02-16T10:13:01;100987.62;;;1.59;88.88
49709;BME280;35601;55.902;13.606;2023-02-16T10:15:26;100988.16;;;1.08;89.03
49709;BME280;35601;55.902;13.606;2023-02-16T10:17:54;100987.41;;;1.57;88.88
49709;BME280;35601;55.902;13.606;2023-02-16T10:20:16;100985.95;;;1.43;88.72
49709;BME280;35601;55.902;13.606;2023-02-16T10:22:41;100984.87;;;1.24;88.49
49709;BME280;35601;55.902;13.606;2023-02-16T10:25:09;100984.27;;;1.55;88.18
49709;BME280;35601;55.902;13.606;2023-02-16T10:27:36;100990.30;;;1.34;88.49
49709;BME280;35601;55.902;13.606;2023-02-16T10:29:56;100992.39;;;1.42;88.28
49709;BME280;35601;55.902;13.606;2023-02-16T10:32:24;100996.21;;;1.38;88.06
49709;BME280;35601;55.902;13.606;2023-02-16T10:34:50;100995.78;;;1.44;87.84
49709;BME280;35601;55.902;13.606;2023-02-16T10:37:21;100991.04;;;1.49;87.89
49709;BME280;35601;55.902;13.606;2023-02-16T10:39:41;100992.00;;;1.55;87.71
49709;BME280;35601;55.902;13.606;2023-02-16T10:42:10;100990.06;;;1.35;87.59
49709;BME280;35601;55.902;13.606;2023-02-16T10:44:30;100988.27;;;1.69;87.13
49709;BME280;35601;55.902;13.606;2023-02-16T10:46:57;100989.87;;;1.78;87.11
49709;BME280;35601;55.902;13.606;2023-02-16T10:49:18;100990.74;;;1.68;87.07
49709;BME280;35601;55.902;13.606;2023-02-16T10:51:46;100987.08;;;1.70;87.83
49709;BME280;35601;55.902;13.606;2023-02-16T10:54:13;100988.69;;;1.75;87.87
49709;BME280;35601;55.902;13.606;2023-02-16T10:56:42;100991.81;;;1.75;87.44
49709;BME280;35601;55.902;13.606;2023-02-16T10:59:03;100985.84;;;1.74;87.24
49709;BME280;35601;55.902;13.606;2023-02-16T11:01:32;100986.42;;;1.82;87.26
49709;BME280;35601;55.902;13.606;2023-02-16T11:03:51;100990.18;;;1.86;87.39
49709;BME280;35601;55.902;13.606;2023-02-16T11:06:18;100989.20;;;1.90;87.21
49709;BME280;35601;55.902;13.606;2023-02-16T11:08:47;100985.05;;;1.67;87.16
49709;BME280;35601;55.902;13.606;2023-02-16T11:11:09;100990.71;;;1.91;87.20
49709;BME280;35601;55.902;13.606;2023-02-16T11:13:34;100990.04;;;1.99;87.33
49709;BME280;35601;55.902;13.606;2023-02-16T11:16:04;100984.50;;;1.51;87.49
49709;BME280;35601;55.902;13.606;2023-02-16T11:18:30;100983.36;;;2.03;87.29
49709;BME280;35601;55.902;13.606;2023-02-16T11:20:53;100986.28;;;1.96;87.38
49709;BME280;35601;55.902;13.606;2023-02-16T11:23:21;100982.61;;;1.99;87.44
49709;BME280;35601;55.902;13.606;2023-02-16T11:25:41;100981.91;;;1.98;88.00
49709;BME280;35601;55.902;13.606;2023-02-16T11:28:06;100986.52;;;1.46;89.01
49709;BME280;35601;55.902;13.606;2023-02-16T11:30:33;100985.50;;;1.45;89.11
49709;BME280;35601;55.902;13.606;2023-02-16T11:32:57;100971.28;;;1.52;89.39
49709;BME280;35601;55.902;13.606;2023-02-16T11:35:22;100970.79;;;1.60;89.07
49709;BME280;35601;55.902;13.606;2023-02-16T11:37:47;100971.10;;;1.64;88.59
49709;BME280;35601;55.902;13.606;2023-02-16T11:40:19;100964.27;;;1.61;88.99
49709;BME280;35601;55.902;13.606;2023-02-16T11:42:40;100962.91;;;1.69;88.30
49709;BME280;35601;55.902;13.606;2023-02-16T11:45:04;100951.62;;;1.91;88.25
49709;BME280;35601;55.902;13.606;2023-02-16T11:47:31;100944.72;;;1.69;88.25
49709;BME280;35601;55.902;13.606;2023-02-16T11:50:08;100946.45;;;1.91;88.57
49709;BME280;35601;55.902;13.606;2023-02-16T11:52:26;100936.46;;;2.02;88.55
49709;BME280;35601;55.902;13.606;2023-02-16T11:54:48;100929.25;;;2.01;89.16
49709;BME280;35601;55.902;13.606;2023-02-16T11:57:11;100928.27;;;2.22;88.40
49709;BME280;35601;55.902;13.606;2023-02-16T11:59:38;100923.11;;;2.35;88.13
49709;BME280;35601;55.902;13.606;2023-02-16T12:02:20;100919.05;;;2.01;88.90
49709;BME280;35601;55.902;13.606;2023-02-16T12:04:40;100918.72;;;1.94;88.61
49709;BME280;35601;55.902;13.606;2023-02-16T12:06:59;100926.16;;;2.31;87.79
49709;BME280;35601;55.902;13.606;2023-02-16T12:09:24;100926.55;;;2.41;87.30
49709;BME280;35601;55.902;13.606;2023-02-16T12:11:51;100928.40;;;2.12;87.81
49709;BME280;35601;55.902;13.606;2023-02-16T12:14:19;100929.99;;;2.66;88.68
49709;BME280;35601;55.902;13.606;2023-02-16T12:16:38;100924.86;;;2.23;89.66
49709;BME280;35601;55.902;13.606;2023-02-16T12:19:08;100919.98;;;2.40;89.09
49709;BME280;35601;55.902;13.606;2023-02-16T12:21:30;100921.24;;;2.35;88.21
49709;BME280;35601;55.902;13.606;2023-02-16T12:23:56;100922.44;;;2.16;88.99
49709;BME280;35601;55.902;13.606;2023-02-16T12:26:28;100924.81;;;2.07;90.40
49709;BME280;35601;55.902;13.606;2023-02-16T12:28:46;100926.15;;;1.91;90.53
49709;BME280;35601;55.902;13.606;2023-02-16T12:31:13;100916.54;;;1.80;92.18
49709;BME280;35601;55.902;13.606;2023-02-16T12:33:39;100910.80;;;2.18;92.42
49709;BME280;35601;55.902;13.606;2023-02-16T12:36:16;100914.13;;;1.99;92.13
49709;BME280;35601;55.902;13.606;2023-02-16T12:38:32;100913.13;;;2.12;91.57